Time;durP1;ratioP1;P1;durP2;ratioP2;P2;SDS_P1;SDS_P2;PMS_P1;PMS_P2;Temp;Humidity;BMP_temperature;BMP_pressure;BME280_temperature;BME280_humidity;BME280_pressure;Samples;Min_cycle;Max_cycle;Signal;HPM_P1;HPM_P2
2022/10/27 00:00:44;;;;;;;2.90;2.40;;;11.10;99.90;11.20;101314.00;;;;4924454;28;101405;-63
2022/10/27 00:03:14;;;;;;;3.83;2.20;;;11.20;99.90;11.30;101318.00;;;;4915382;28;88107;-62
2022/10/27 00:05:40;;;;;;;4.53;2.73;;;11.30;99.90;11.40;101311.00;;;;4925418;28;89232;-62
2022/10/27 00:08:06;;;;;;;2.47;2.27;;;11.30;99.90;11.50;101321.00;;;;4930970;28;89633;-63
2022/10/27 00:10:32;;;;;;;2.10;1.70;;;11.50;99.90;11.60;101328.00;;;;4925867;28;96704;-62
2022/10/27 00:12:57;;;;;;;4.30;2.63;;;11.50;99.90;11.70;101317.00;;;;4919784;28;88120;-63
2022/10/27 00:15:23;;;;;;;3.93;2.47;;;11.70;99.90;11.80;101321.00;;;;4924473;28;117868;-63
2022/10/27 00:17:49;;;;;;;2.80;2.57;;;11.80;99.90;11.90;101321.00;;;;4922840;28;91833;-63
2022/10/27 00:20:15;;;;;;;3.47;2.27;;;11.90;99.90;12.00;101326.00;;;;4927619;28;106381;-63
2022/10/27 00:22:40;;;;;;;2.23;2.03;;;12.00;99.90;12.10;101336.00;;;;4924825;28;99950;-63
2022/10/27 00:25:07;;;;;;;4.40;2.50;;;12.10;99.90;12.20;101343.00;;;;4921288;28;116475;-63
2022/10/27 00:27:32;;;;;;;3.67;2.57;;;12.20;99.90;12.30;101335.00;;;;4924576;28;92645;-63
2022/10/27 00:29:58;;;;;;;2.47;2.17;;;12.30;99.90;12.30;101339.00;;;;4925126;28;110361;-62
2022/10/27 00:32:24;;;;;;;3.63;2.70;;;12.30;99.90;12.40;101346.00;;;;4924561;28;107425;-64
2022/10/27 00:34:50;;;;;;;2.93;2.33;;;12.40;99.90;12.40;101351.00;;;;4921913;28;87744;-63
2022/10/27 00:37:16;;;;;;;2.43;1.73;;;12.40;99.90;12.50;101350.00;;;;4920087;28;117655;-63
2022/10/27 00:39:41;;;;;;;4.87;2.30;;;12.50;99.90;12.60;101357.00;;;;4922797;28;87896;-64
2022/10/27 00:42:12;;;;;;;2.27;1.90;;;12.50;99.90;12.60;101356.00;;;;4928093;28;108156;-63
2022/10/27 00:44:40;;;;;;;3.43;2.00;;;12.60;99.90;12.70;101357.00;;;;4930424;28;89530;-63
2022/10/27 00:47:12;;;;;;;2.43;2.13;;;12.60;99.90;12.70;101356.00;;;;4915795;28;89110;-63
2022/10/27 00:50:02;;;;;;;3.60;2.27;;;12.70;99.90;12.70;101362.00;;;;4918099;28;103096;-63
2022/10/27 00:52:49;;;;;;;2.10;1.70;;;12.70;99.90;12.80;101367.00;;;;4924568;28;100434;-64
2022/10/27 00:55:32;;;;;;;4.27;2.33;;;12.80;99.90;12.80;101367.00;;;;4922927;28;88760;-62
2022/10/27 00:58:02;;;;;;;3.90;2.20;;;12.80;99.90;12.90;101369.00;;;;4917178;28;88261;-62
2022/10/27 01:00:28;;;;;;;3.20;1.90;;;12.90;99.90;12.90;101372.00;;;;4917354;28;87842;-63
2022/10/27 01:02:54;;;;;;;2.20;1.57;;;12.90;99.90;13.00;101373.00;;;;4923916;28;108810;-63
2022/10/27 01:05:24;;;;;;;3.33;1.83;;;13.00;99.90;13.00;101373.00;;;;4930480;28;118570;-63
2022/10/27 01:07:54;;;;;;;2.87;1.80;;;13.00;99.90;13.10;101378.00;;;;4921015;28;88157;-63
2022/10/27 01:10:21;;;;;;;3.83;2.40;;;13.10;99.90;13.10;101373.00;;;;4924238;28;87986;-63
2022/10/27 01:12:47;;;;;;;3.30;1.90;;;13.10;99.90;13.20;101388.00;;;;4927548;28;86868;-62
2022/10/27 01:15:14;;;;;;;3.20;1.97;;;13.10;99.90;13.20;101386.00;;;;4919624;28;117760;-63
2022/10/27 01:18:11;;;;;;;2.27;1.67;;;13.20;99.90;13.20;101381.00;;;;4921432;28;98290;-63
2022/10/27 01:22:01;;;;;;;4.80;2.00;;;13.20;99.90;13.20;101385.00;;;;4918596;28;89066;-63
2022/10/27 01:24:42;;;;;;;3.87;2.30;;;13.30;99.90;13.30;101380.00;;;;4941805;28;87971;-63
2022/10/27 01:27:40;;;;;;;7.73;1.80;;;13.30;99.90;13.30;101383.00;;;;4938282;28;89181;-62
2022/10/27 01:30:14;;;;;;;3.13;2.37;;;13.30;99.90;13.30;101386.00;;;;4907328;28;87717;-63
2022/10/27 01:32:59;;;;;;;4.90;1.77;;;13.30;99.90;13.30;101384.00;;;;4918581;28;88013;-62
2022/10/27 01:35:45;;;;;;;1.73;1.50;;;13.30;99.90;13.20;101390.00;;;;4914941;28;100094;-62
2022/10/27 01:38:23;;;;;;;1.77;1.20;;;13.30;99.90;13.20;101393.00;;;;4924830;28;87802;-62
2022/10/27 01:41:25;;;;;;;1.43;1.33;;;13.20;99.90;13.10;101388.00;;;;4925701;28;100958;-62
2022/10/27 01:43:58;;;;;;;2.13;1.73;;;13.20;99.90;13.10;101382.00;;;;4931155;28;87857;-63
2022/10/27 01:46:24;;;;;;;4.30;2.20;;;13.10;99.90;13.10;101384.00;;;;4919229;28;102942;-62
2022/10/27 01:48:50;;;;;;;4.37;2.50;;;13.10;99.90;13.00;101390.00;;;;4930763;28;89103;-62
2022/10/27 01:51:16;;;;;;;3.90;2.00;;;13.10;99.90;13.00;101395.00;;;;4915993;28;116786;-63
2022/10/27 01:53:50;;;;;;;2.73;2.33;;;13.00;99.90;13.00;101398.00;;;;4920618;28;100072;-62
2022/10/27 01:57:15;;;;;;;4.33;1.43;;;13.00;99.90;12.90;101401.00;;;;4918200;28;87927;-62
2022/10/27 02:00:04;;;;;;;4.07;1.77;;;13.00;99.90;12.90;101392.00;;;;4940294;28;103279;-61
2022/10/27 02:02:43;;;;;;;5.60;1.83;;;12.90;99.90;12.80;101398.00;;;;4923125;28;113617;-63
2022/10/27 02:05:35;;;;;;;3.27;2.40;;;12.90;99.90;12.80;101403.00;;;;4915395;28;102506;-64
2022/10/27 02:08:09;;;;;;;1.80;1.47;;;12.90;99.90;12.70;101406.00;;;;4926312;28;89143;-63
2022/10/27 02:11:00;;;;;;;1.80;1.40;;;12.80;99.90;12.60;101397.00;;;;4914691;28;88571;-61
2022/10/27 02:13:29;;;;;;;1.50;1.40;;;12.70;99.90;12.60;101401.00;;;;4919774;28;90343;-63
2022/10/27 02:16:01;;;;;;;2.47;1.77;;;12.70;99.90;12.60;101399.00;;;;4919146;28;104069;-62
2022/10/27 02:18:34;;;;;;;1.47;1.37;;;12.60;99.90;12.50;101402.00;;;;4916246;28;89624;-63
2022/10/27 02:21:05;;;;;;;2.97;1.83;;;12.60;99.90;12.40;101397.00;;;;4924134;28;97412;-63
2022/10/27 02:23:32;;;;;;;2.17;1.97;;;12.50;99.90;12.40;101400.00;;;;4930761;28;109175;-62
2022/10/27 02:26:24;;;;;;;5.60;2.17;;;12.50;99.90;12.30;101402.00;;;;4923171;28;108353;-63
2022/10/27 02:29:15;;;;;;;4.53;2.70;;;12.40;99.90;12.30;101391.00;;;;4916911;28;101458;-63
2022/10/27 02:31:47;;;;;;;1.80;1.70;;;12.40;99.90;12.20;101400.00;;;;4923120;28;88346;-63
2022/10/27 02:34:15;;;;;;;2.40;1.80;;;12.30;99.90;12.20;101400.00;;;;4917733;28;107266;-62
2022/10/27 02:36:41;;;;;;;1.77;1.67;;;11.90;99.90;12.10;101401.00;;;;4922032;28;92819;-62
2022/10/27 02:39:06;;;;;;;2.93;2.27;;;12.20;99.90;12.10;101406.00;;;;4922201;28;87827;-61
2022/10/27 02:41:32;;;;;;;2.60;2.37;;;12.20;99.90;12.10;101400.00;;;;4920983;28;118136;-63
2022/10/27 02:43:58;;;;;;;3.67;2.83;;;12.20;99.90;12.00;101405.00;;;;4929101;28;116182;-63
2022/10/27 02:46:23;;;;;;;2.43;1.93;;;12.10;99.90;11.90;101405.00;;;;4930055;28;110676;-62
2022/10/27 02:48:49;;;;;;;1.57;1.47;;;12.10;99.90;11.90;101405.00;;;;4918831;28;108020;-63
2022/10/27 02:51:15;;;;;;;2.37;2.10;;;12.00;99.90;11.80;101415.00;;;;4923805;28;117429;-62
2022/10/27 02:53:40;;;;;;;4.07;2.20;;;11.90;99.90;11.80;101400.00;;;;4924543;28;94675;-62
2022/10/27 02:56:07;;;;;;;5.37;2.30;;;11.90;99.90;11.70;101409.00;;;;4920738;28;109453;-62
2022/10/27 02:58:34;;;;;;;2.00;1.83;;;11.80;99.90;11.70;101408.00;;;;4920873;28;88071;-62
2022/10/27 03:01:00;;;;;;;4.23;2.30;;;11.70;99.90;11.60;101419.00;;;;4917696;28;96188;-62
2022/10/27 03:03:25;;;;;;;2.50;1.97;;;11.70;99.90;11.60;101408.00;;;;4922719;28;87936;-62
2022/10/27 03:05:51;;;;;;;3.37;2.13;;;11.70;99.90;11.50;101420.00;;;;4928004;28;111766;-62
2022/10/27 03:08:18;;;;;;;5.40;2.53;;;11.60;99.90;11.50;101416.00;;;;4923636;28;100070;-62
2022/10/27 03:10:44;;;;;;;2.40;1.93;;;11.60;99.90;11.40;101422.00;;;;4918125;28;118721;-63
2022/10/27 03:13:10;;;;;;;3.30;2.10;;;11.50;99.90;11.40;101426.00;;;;4922524;28;88398;-62
2022/10/27 03:15:36;;;;;;;3.90;2.67;;;11.50;99.90;11.30;101419.00;;;;4918466;28;110227;-63
2022/10/27 03:18:02;;;;;;;3.50;2.90;;;11.40;99.90;11.30;101430.00;;;;4918871;28;107783;-62
2022/10/27 03:20:27;;;;;;;3.10;2.23;;;11.30;99.90;11.30;101427.00;;;;4921475;28;88242;-64
2022/10/27 03:22:53;;;;;;;2.63;1.63;;;11.30;99.90;11.20;101429.00;;;;4919262;28;115763;-63
2022/10/27 03:25:19;;;;;;;2.17;1.87;;;11.30;99.90;11.10;101430.00;;;;4925066;28;108684;-63
2022/10/27 03:27:45;;;;;;;4.03;2.93;;;11.20;99.90;11.00;101428.00;;;;4926699;28;87931;-64
2022/10/27 03:30:14;;;;;;;3.20;2.17;;;11.10;99.90;10.90;101428.00;;;;4919256;28;105598;-63
2022/10/27 03:32:44;;;;;;;2.07;1.50;;;11.00;99.90;10.90;101428.00;;;;4917822;28;107134;-63
2022/10/27 03:35:09;;;;;;;1.77;1.67;;;11.00;99.90;10.80;101437.00;;;;4922399;28;89760;-63
2022/10/27 03:37:35;;;;;;;2.73;1.67;;;10.90;99.90;10.80;101422.00;;;;4917418;28;108902;-62
2022/10/27 03:40:01;;;;;;;2.90;1.57;;;10.80;99.90;10.70;101434.00;;;;4923896;28;117663;-63
2022/10/27 03:42:26;;;;;;;1.60;1.43;;;10.80;99.90;10.60;101427.00;;;;4923640;28;117452;-63
2022/10/27 03:44:52;;;;;;;2.70;1.67;;;10.70;99.90;10.50;101428.00;;;;4919408;28;109524;-62
2022/10/27 03:47:18;;;;;;;3.37;2.20;;;10.60;99.90;10.50;101431.00;;;;4925134;28;109534;-63
2022/10/27 03:49:43;;;;;;;2.90;1.90;;;10.60;99.90;10.40;101425.00;;;;4929178;28;118166;-63
2022/10/27 03:52:09;;;;;;;1.83;1.47;;;10.50;99.90;10.30;101439.00;;;;4914376;28;116508;-63
2022/10/27 03:54:34;;;;;;;1.60;1.50;;;10.40;99.90;10.30;101444.00;;;;4917537;28;109522;-63
2022/10/27 03:57:00;;;;;;;3.43;1.83;;;10.40;99.90;10.20;101445.00;;;;4920204;28;108697;-64
2022/10/27 03:59:26;;;;;;;2.13;2.03;;;10.30;99.90;10.10;101441.00;;;;4919500;28;118255;-63
2022/10/27 04:01:52;;;;;;;3.20;3.00;;;10.30;99.90;10.10;101440.00;;;;4924178;28;88027;-63
2022/10/27 04:04:17;;;;;;;4.73;2.20;;;10.20;99.90;10.00;101440.00;;;;4927910;28;109163;-63
2022/10/27 04:06:43;;;;;;;3.13;2.27;;;10.20;99.90;10.00;101447.00;;;;4919039;28;88742;-63
2022/10/27 04:09:08;;;;;;;2.77;1.43;;;10.10;99.90;10.00;101441.00;;;;4923688;28;117429;-63
2022/10/27 04:11:34;;;;;;;1.83;1.50;;;10.00;99.90;9.90;101450.00;;;;4923165;28;117221;-63
2022/10/27 04:14:00;;;;;;;2.30;1.93;;;10.00;99.90;9.90;101454.00;;;;4921019;28;110743;-64
2022/10/27 04:16:26;;;;;;;2.23;1.93;;;10.00;99.90;9.80;101461.00;;;;4924516;28;87667;-64
2022/10/27 04:18:51;;;;;;;2.47;1.90;;;9.90;99.90;9.80;101457.00;;;;4913564;28;117464;-63
2022/10/27 04:21:17;;;;;;;1.90;1.70;;;9.90;99.90;9.70;101458.00;;;;4914468;28;89440;-63
2022/10/27 04:23:44;;;;;;;3.00;1.97;;;9.80;99.90;9.60;101460.00;;;;4914561;28;110050;-63
2022/10/27 04:26:09;;;;;;;5.83;2.27;;;9.80;99.90;9.60;101465.00;;;;4913864;28;101050;-63
2022/10/27 04:28:35;;;;;;;1.83;1.70;;;9.70;99.90;9.60;101464.00;;;;4912275;28;88592;-63
2022/10/27 04:31:01;;;;;;;2.90;1.60;;;9.60;99.90;9.50;101451.00;;;;4915068;28;88121;-63
2022/10/27 04:33:26;;;;;;;1.70;1.60;;;9.70;99.90;9.50;101452.00;;;;4916050;28;108958;-63
2022/10/27 04:35:52;;;;;;;1.37;1.27;;;9.60;99.90;9.40;101444.00;;;;4915317;28;110241;-63
2022/10/27 04:38:17;;;;;;;2.33;1.40;;;9.50;99.90;9.40;101458.00;;;;4920654;28;118503;-62
2022/10/27 04:40:43;;;;;;;2.30;1.30;;;9.50;99.90;9.30;101466.00;;;;4917872;28;116986;-63
2022/10/27 04:43:09;;;;;;;1.83;1.50;;;9.40;99.90;9.30;101473.00;;;;4921594;28;110425;-63
2022/10/27 04:45:35;;;;;;;1.40;1.30;;;9.40;99.90;9.20;101466.00;;;;4929179;28;109048;-63
2022/10/27 04:48:00;;;;;;;2.37;1.37;;;9.40;99.90;9.20;101475.00;;;;4919188;28;102016;-62
2022/10/27 04:50:26;;;;;;;1.87;1.37;;;9.30;99.90;9.20;101478.00;;;;4917511;28;116633;-63
2022/10/27 04:53:00;;;;;;;1.70;1.47;;;9.30;99.90;9.10;101485.00;;;;4925493;28;109992;-63
2022/10/27 04:55:29;;;;;;;2.03;1.50;;;9.30;99.90;9.10;101489.00;;;;4925661;28;87720;-64
2022/10/27 04:57:55;;;;;;;1.87;1.37;;;9.20;99.90;9.10;101486.00;;;;4925868;28;88208;-62
2022/10/27 05:00:22;;;;;;;1.57;1.33;;;9.20;99.90;9.00;101480.00;;;;4925616;28;97912;-63
2022/10/27 05:02:57;;;;;;;3.07;1.47;;;9.10;99.90;9.00;101492.00;;;;4919885;28;87785;-63
2022/10/27 05:05:26;;;;;;;2.83;1.63;;;9.10;99.90;8.90;101489.00;;;;4927063;28;87764;-62
2022/10/27 05:07:57;;;;;;;1.23;1.13;;;9.10;99.90;8.90;101497.00;;;;4932073;28;102533;-62
2022/10/27 05:10:23;;;;;;;1.60;1.50;;;9.10;99.90;8.80;101492.00;;;;4920811;28;88936;-63
2022/10/27 05:12:49;;;;;;;3.07;1.77;;;9.00;99.90;8.80;101505.00;;;;4921744;28;101600;-64
2022/10/27 05:15:15;;;;;;;2.60;1.53;;;9.00;99.90;8.80;101504.00;;;;4926046;28;87774;-63
2022/10/27 05:17:41;;;;;;;5.33;2.23;;;8.90;99.90;8.80;101499.00;;;;4919918;28;88912;-64
2022/10/27 05:20:08;;;;;;;2.13;1.73;;;8.90;99.90;8.80;101510.00;;;;4928920;28;91854;-62
2022/10/27 05:22:33;;;;;;;2.27;1.80;;;8.90;99.90;8.70;101508.00;;;;4914049;28;87899;-62
2022/10/27 05:25:00;;;;;;;2.80;1.47;;;8.80;99.90;8.70;101513.00;;;;4922831;28;109453;-62
2022/10/27 05:27:25;;;;;;;4.07;2.33;;;8.80;99.90;8.70;101515.00;;;;4927418;28;90261;-63
2022/10/27 05:29:51;;;;;;;2.00;1.80;;;8.80;99.90;8.60;101524.00;;;;4926529;28;117345;-64
2022/10/27 05:32:17;;;;;;;2.40;2.20;;;8.70;99.90;8.60;101516.00;;;;4921597;28;110289;-63
2022/10/27 05:34:42;;;;;;;2.93;2.10;;;8.70;99.90;8.60;101522.00;;;;4920365;28;109003;-65
2022/10/27 05:37:08;;;;;;;2.70;2.27;;;8.70;99.90;8.60;101520.00;;;;4922205;28;118318;-63
2022/10/27 05:39:34;;;;;;;2.37;2.17;;;8.70;99.90;8.50;101521.00;;;;4921976;28;110758;-63
2022/10/27 05:42:00;;;;;;;2.53;1.80;;;8.70;99.90;8.50;101526.00;;;;4927145;28;110327;-63
2022/10/27 05:44:25;;;;;;;2.60;2.37;;;8.60;99.90;8.50;101539.00;;;;4924339;28;108367;-62
2022/10/27 05:46:51;;;;;;;4.70;2.40;;;8.60;99.90;8.50;101527.00;;;;4919453;28;117281;-62
2022/10/27 05:49:17;;;;;;;3.50;1.57;;;9.10;99.90;8.40;101533.00;;;;4926283;28;97517;-62
2022/10/27 05:51:42;;;;;;;1.37;1.20;;;8.60;99.90;8.40;101529.00;;;;4926258;28;110944;-62
2022/10/27 05:54:08;;;;;;;2.30;1.63;;;8.50;99.90;8.40;101534.00;;;;4922740;28;109427;-64
2022/10/27 05:56:34;;;;;;;2.17;1.80;;;8.50;99.90;8.40;101534.00;;;;4916491;28;117617;-64
2022/10/27 05:58:59;;;;;;;2.90;2.13;;;8.50;99.90;8.40;101542.00;;;;4921385;28;117513;-63
2022/10/27 06:01:25;;;;;;;2.63;2.20;;;8.50;99.90;8.30;101546.00;;;;4922883;28;110810;-64
2022/10/27 06:03:50;;;;;;;1.67;1.50;;;8.50;99.90;8.40;101559.00;;;;4931442;28;108848;-62
2022/10/27 06:06:16;;;;;;;3.10;2.57;;;8.50;99.90;8.30;101551.00;;;;4926499;28;117738;-64
2022/10/27 06:08:42;;;;;;;4.33;2.03;;;8.50;99.90;8.30;101544.00;;;;4920795;28;116755;-64
2022/10/27 06:11:08;;;;;;;2.73;1.40;;;8.40;99.90;8.30;101555.00;;;;4925819;28;98757;-62
2022/10/27 06:13:33;;;;;;;2.60;1.63;;;8.40;99.90;8.30;101544.00;;;;4922049;28;101821;-62
2022/10/27 06:15:59;;;;;;;8.90;3.53;;;8.40;99.90;8.30;101553.00;;;;4924683;28;104652;-63
2022/10/27 06:18:25;;;;;;;3.13;2.07;;;8.40;99.90;8.30;101556.00;;;;4916798;28;115276;-61
2022/10/27 06:20:50;;;;;;;4.03;3.27;;;8.40;99.90;8.30;101552.00;;;;4919461;28;109785;-63
2022/10/27 06:23:16;;;;;;;7.83;4.00;;;8.40;99.90;8.30;101551.00;;;;4922976;28;108449;-63
2022/10/27 06:25:42;;;;;;;3.27;2.87;;;8.40;99.90;8.30;101562.00;;;;4931591;28;97391;-63
2022/10/27 06:28:07;;;;;;;3.77;3.17;;;8.40;99.90;8.30;101564.00;;;;4921297;28;117055;-63
2022/10/27 06:30:33;;;;;;;6.30;3.30;;;8.40;99.90;8.40;101568.00;;;;4920682;28;111374;-63
2022/10/27 06:32:59;;;;;;;2.97;2.40;;;8.50;99.90;8.40;101579.00;;;;4925352;28;87902;-63
2022/10/27 06:35:24;;;;;;;4.60;3.23;;;8.50;99.90;8.50;101577.00;;;;4920333;28;117622;-63
2022/10/27 06:37:50;;;;;;;3.53;2.87;;;8.60;99.90;8.60;101575.00;;;;4925459;28;116616;-63
2022/10/27 06:40:18;;;;;;;5.53;3.93;;;8.60;99.90;8.80;101584.00;;;;4917857;28;110358;-63
2022/10/27 06:42:46;;;;;;;8.67;4.77;;;8.80;99.90;9.00;101573.00;;;;4921441;28;89235;-63
2022/10/27 06:45:12;;;;;;;3.97;3.60;;;9.00;99.90;9.30;101589.00;;;;4925901;28;89892;-63
2022/10/27 06:47:38;;;;;;;5.47;4.07;;;9.30;99.90;9.60;101589.00;;;;4925340;28;118519;-62
2022/10/27 06:50:05;;;;;;;7.40;3.33;;;9.50;99.90;9.90;101585.00;;;;4919181;28;110979;-64
2022/10/27 06:52:38;;;;;;;5.43;4.33;;;9.80;99.90;10.20;101597.00;;;;4920239;28;87798;-62
2022/10/27 06:55:05;;;;;;;3.53;2.87;;;10.10;99.90;10.50;101593.00;;;;4924553;28;93636;-63
2022/10/27 06:57:41;;;;;;;5.00;3.70;;;10.40;99.90;10.70;101594.00;;;;4920181;28;88539;-62
2022/10/27 07:00:09;;;;;;;4.50;3.50;;;10.70;99.90;11.10;101614.00;;;;4928075;28;87816;-64
2022/10/27 07:02:35;;;;;;;5.87;3.50;;;11.00;99.90;11.30;101600.00;;;;4916959;28;87161;-62
2022/10/27 07:05:02;;;;;;;6.07;3.37;;;11.30;99.90;11.70;101594.00;;;;4922758;28;98321;-63
2022/10/27 07:07:28;;;;;;;5.30;3.97;;;11.60;99.90;12.00;101613.00;;;;4920787;28;88101;-62
2022/10/27 07:09:53;;;;;;;7.57;4.43;;;11.90;99.90;12.30;101616.00;;;;4925332;28;108168;-63
2022/10/27 07:12:19;;;;;;;4.77;3.67;;;12.30;99.90;12.70;101614.00;;;;4919242;28;107313;-64
2022/10/27 07:14:45;;;;;;;4.77;3.63;;;12.50;99.90;13.00;101613.00;;;;4918817;28;117181;-63
2022/10/27 07:17:10;;;;;;;3.03;2.73;;;12.90;99.90;13.30;101620.00;;;;4918956;28;105260;-64
2022/10/27 07:19:36;;;;;;;5.40;3.43;;;13.20;99.90;13.60;101619.00;;;;4923082;28;108660;-63
2022/10/27 07:22:02;;;;;;;4.87;3.33;;;13.50;99.90;13.90;101625.00;;;;4927827;28;108696;-63
2022/10/27 07:24:27;;;;;;;7.00;4.13;;;13.90;99.90;14.20;101625.00;;;;4920382;28;117676;-63
2022/10/27 07:26:53;;;;;;;5.63;3.03;;;14.10;99.90;14.50;101624.00;;;;4918076;28;116458;-63
2022/10/27 07:29:18;;;;;;;2.47;2.23;;;14.40;99.90;14.80;101628.00;;;;4925580;28;110437;-64
2022/10/27 07:31:46;;;;;;;2.60;2.27;;;14.70;99.90;15.20;101634.00;;;;4923851;28;108097;-63
2022/10/27 07:34:12;;;;;;;3.47;2.63;;;15.00;99.90;15.50;101634.00;;;;4920313;28;89250;-63
2022/10/27 07:36:37;;;;;;;7.97;3.13;;;15.30;99.90;15.90;101642.00;;;;4918752;28;109799;-62
2022/10/27 07:39:04;;;;;;;2.75;2.15;;;15.70;99.90;16.10;101638.00;;;;4918823;28;102911;-64
2022/10/27 07:41:29;;;;;;;3.83;2.78;;;16.00;99.90;16.40;101633.00;;;;4923583;28;87767;-62
2022/10/27 07:43:55;;;;;;;10.23;2.42;;;16.20;99.90;16.70;101634.00;;;;4930006;28;118499;-63
2022/10/27 07:46:20;;;;;;;2.47;2.05;;;16.50;99.90;16.90;101633.00;;;;4923652;28;117348;-63
2022/10/27 07:48:46;;;;;;;2.38;2.15;;;16.80;99.90;17.20;101637.00;;;;4921108;28;110499;-63
2022/10/27 07:51:12;;;;;;;1.90;1.63;;;17.00;99.90;17.40;101630.00;;;;4925490;28;108254;-62
2022/10/27 07:53:37;;;;;;;1.95;1.75;;;17.20;99.90;17.60;101645.00;;;;4916327;28;116860;-63
2022/10/27 07:56:03;;;;;;;3.60;2.03;;;17.40;99.90;17.70;101648.00;;;;4922017;28;117511;-63
2022/10/27 07:58:29;;;;;;;1.73;1.63;;;17.60;99.90;17.80;101647.00;;;;4918117;28;102217;-62
2022/10/27 08:00:58;;;;;;;2.15;1.48;;;17.70;99.90;17.90;101645.00;;;;4920688;28;87606;-63
2022/10/27 08:03:28;;;;;;;2.00;1.55;;;17.80;99.90;17.90;101647.00;;;;4924259;28;88893;-64
2022/10/27 08:05:54;;;;;;;2.72;1.65;;;17.80;99.90;18.10;101644.00;;;;4930671;28;88470;-64
2022/10/27 08:08:19;;;;;;;1.58;1.35;;;18.00;99.90;18.20;101655.00;;;;4915747;28;87713;-63
2022/10/27 08:10:48;;;;;;;1.65;1.55;;;18.10;99.90;18.40;101653.00;;;;4921353;28;87858;-64
2022/10/27 08:13:13;;;;;;;3.17;1.65;;;18.20;99.90;18.60;101656.00;;;;4918638;28;107589;-63
2022/10/27 08:15:40;;;;;;;5.90;1.40;;;18.40;99.90;18.70;101657.00;;;;4919828;28;97729;-63
2022/10/27 08:18:07;;;;;;;4.13;1.95;;;18.50;99.90;18.90;101655.00;;;;4927224;28;87963;-63
2022/10/27 08:20:40;;;;;;;3.08;1.85;;;18.70;99.90;19.10;101645.00;;;;4918382;28;88193;-63
2022/10/27 08:23:11;;;;;;;3.30;1.60;;;18.90;99.90;19.30;101639.00;;;;4914477;28;93799;-64
2022/10/27 08:25:37;;;;;;;2.30;1.50;;;19.00;99.90;19.50;101640.00;;;;4928339;28;88314;-63
2022/10/27 08:28:03;;;;;;;2.47;1.55;;;19.30;99.90;19.80;101652.00;;;;4928237;28;109918;-63
2022/10/27 08:30:31;;;;;;;1.75;1.40;;;19.50;99.90;20.00;101657.00;;;;4921879;28;87606;-63
2022/10/27 08:33:01;;;;;;;1.38;1.20;;;19.80;99.90;20.20;101658.00;;;;4924491;28;88907;-63
2022/10/27 08:35:30;;;;;;;3.75;1.45;;;20.00;99.90;20.50;101650.00;;;;4922979;28;111633;-63
2022/10/27 08:38:09;;;;;;;4.10;1.20;;;20.20;99.90;20.70;101653.00;;;;4921654;28;87917;-63
2022/10/27 08:40:58;;;;;;;1.75;1.38;;;20.50;99.90;21.00;101662.00;;;;4925789;28;87086;-63
2022/10/27 08:43:47;;;;;;;3.95;1.83;;;20.70;99.90;21.40;101663.00;;;;4918091;28;114008;-63
2022/10/27 08:46:28;;;;;;;3.20;1.33;;;21.10;99.90;21.80;101673.00;;;;4928320;28;88580;-63
2022/10/27 08:49:01;;;;;;;3.17;0.90;;;21.50;99.90;22.10;101667.00;;;;4920383;28;88942;-63
2022/10/27 08:51:29;;;;;;;3.75;1.52;;;21.80;99.90;22.20;101672.00;;;;4921361;28;87796;-63
2022/10/27 08:53:55;;;;;;;1.80;1.20;;;21.90;99.90;22.40;101668.00;;;;4921012;28;88446;-63
2022/10/27 08:56:25;;;;;;;4.03;1.73;;;22.10;99.90;22.70;101668.00;;;;4922636;28;112321;-62
2022/10/27 08:58:51;;;;;;;2.00;1.80;;;22.40;99.90;22.90;101672.00;;;;4921009;28;87940;-63
2022/10/27 09:01:43;;;;;;;1.95;1.23;;;22.60;99.90;23.00;101678.00;;;;4930206;28;95045;-63
2022/10/27 09:04:25;;;;;;;5.22;1.70;;;22.80;99.90;23.00;101682.00;;;;4919950;28;88705;-63
2022/10/27 09:07:25;;;;;;;1.80;1.13;;;22.80;99.90;23.20;101687.00;;;;4921540;28;109781;-63
2022/10/27 09:10:02;;;;;;;1.80;1.08;;;23.00;99.90;23.50;101687.00;;;;4918850;28;98643;-63
2022/10/27 09:13:00;;;;;;;1.90;1.33;;;23.20;99.90;23.70;101692.00;;;;4921420;28;87994;-62
2022/10/27 09:15:42;;;;;;;2.50;1.17;;;23.40;99.90;23.80;101694.00;;;;4919434;28;89094;-63
2022/10/27 09:18:29;;;;;;;1.85;0.75;;;23.60;98.80;23.90;101681.00;;;;4923462;28;102810;-62
2022/10/27 09:20:57;;;;;;;6.32;1.52;;;23.70;98.50;24.10;101693.00;;;;4920785;28;87862;-62
2022/10/27 09:23:39;;;;;;;1.38;1.25;;;23.80;97.80;24.20;101682.00;;;;4930590;28;87819;-63
2022/10/27 09:26:06;;;;;;;3.13;1.58;;;24.00;97.50;24.20;101684.00;;;;4918242;28;97026;-63
2022/10/27 09:28:51;;;;;;;1.33;1.08;;;24.00;96.50;24.30;101689.00;;;;4918191;28;109838;-62
2022/10/27 09:31:24;;;;;;;1.70;0.90;;;24.10;95.90;24.40;101678.00;;;;4927685;28;87830;-62
2022/10/27 09:34:10;;;;;;;1.10;0.85;;;24.20;95.80;24.50;101678.00;;;;4918761;28;93386;-63
2022/10/27 09:36:35;;;;;;;2.53;0.90;;;24.30;95.10;24.80;101674.00;;;;4918610;28;114119;-63
2022/10/27 09:39:01;;;;;;;0.88;0.88;;;24.40;94.50;25.00;101676.00;;;;4915618;28;117608;-63
2022/10/27 09:41:27;;;;;;;0.63;0.63;;;24.60;93.90;25.20;101671.00;;;;4918974;28;109065;-63
2022/10/27 09:43:54;;;;;;;1.05;0.75;;;24.80;93.90;25.30;101679.00;;;;4929187;28;108859;-64
2022/10/27 09:46:26;;;;;;;1.83;1.00;;;25.00;93.30;25.40;101682.00;;;;4933491;28;88289;-62
2022/10/27 09:48:57;;;;;;;2.15;1.58;;;25.10;91.40;25.50;101687.00;;;;4920921;28;88341;-62
2022/10/27 09:51:39;;;;;;;1.73;1.10;;;25.10;91.30;25.60;101681.00;;;;4921799;28;95002;-62
2022/10/27 09:54:04;;;;;;;1.90;1.05;;;25.20;91.40;25.90;101684.00;;;;4916256;28;88092;-63
2022/10/27 09:56:35;;;;;;;1.30;0.90;;;25.40;91.50;26.10;101687.00;;;;4922525;28;106269;-65
2022/10/27 09:59:03;;;;;;;1.83;1.17;;;25.70;90.30;26.20;101684.00;;;;4921184;28;87848;-64
2022/10/27 10:01:38;;;;;;;1.88;1.30;;;25.80;89.40;26.30;101685.00;;;;4921280;28;87857;-63
2022/10/27 10:04:20;;;;;;;0.80;0.80;;;26.00;88.30;26.50;101678.00;;;;4923863;28;91453;-64
2022/10/27 10:06:53;;;;;;;3.60;1.10;;;26.10;87.10;26.80;101682.00;;;;4919839;28;89548;-63
2022/10/27 10:09:39;;;;;;;1.70;1.00;;;26.30;86.50;27.10;101684.00;;;;4917253;28;90362;-63
2022/10/27 10:12:18;;;;;;;0.60;0.60;;;26.60;86.30;27.50;101688.00;;;;4919323;28;87943;-65
2022/10/27 10:14:45;;;;;;;4.32;1.13;;;27.00;85.10;27.90;101686.00;;;;4923907;28;87660;-64
2022/10/27 10:17:26;;;;;;;2.08;1.05;;;27.30;83.90;28.10;101683.00;;;;4921278;28;87868;-65
2022/10/27 10:19:55;;;;;;;1.73;0.70;;;27.60;82.20;28.20;101682.00;;;;4932405;28;88025;-65
2022/10/27 10:22:30;;;;;;;0.65;0.63;;;27.80;76.90;28.10;101678.00;;;;4917262;28;87892;-65
2022/10/27 10:24:59;;;;;;;1.98;1.17;;;27.70;75.60;28.00;101680.00;;;;4924434;28;97314;-65
2022/10/27 10:27:32;;;;;;;1.42;0.80;;;27.60;74.60;27.90;101680.00;;;;4926583;28;89155;-65
2022/10/27 10:30:03;;;;;;;2.25;0.70;;;27.50;72.70;27.70;101675.00;;;;4924297;28;88704;-65
2022/10/27 10:32:35;;;;;;;1.08;0.90;;;27.30;69.00;27.20;101669.00;;;;4917806;28;88798;-65
2022/10/27 10:35:44;;;;;;;1.25;1.15;;;27.00;68.30;26.80;101667.00;;;;4923242;28;87714;-65
2022/10/27 10:38:27;;;;;;;0.60;0.60;;;26.60;68.00;26.60;101662.00;;;;4914524;28;88954;-64
2022/10/27 10:41:13;;;;;;;0.90;0.82;;;26.30;70.70;26.50;101663.00;;;;4923687;28;87993;-64
2022/10/27 10:43:40;;;;;;;1.05;0.90;;;26.10;71.00;26.40;101657.00;;;;4918498;28;87859;-65
2022/10/27 10:46:19;;;;;;;1.65;0.82;;;26.00;70.70;26.20;101655.00;;;;4922308;28;87748;-66
2022/10/27 10:48:50;;;;;;;0.45;0.40;;;25.90;69.40;26.10;101661.00;;;;4916887;28;88750;-65
2022/10/27 10:51:29;;;;;;;1.45;0.82;;;25.70;70.80;26.00;101663.00;;;;4921365;28;102436;-66
2022/10/27 10:54:01;;;;;;;1.08;0.90;;;25.60;70.20;26.00;101664.00;;;;4919838;28;87827;-66
2022/10/27 10:56:37;;;;;;;0.90;0.70;;;25.60;71.00;25.90;101660.00;;;;4921708;28;87741;-66
2022/10/27 10:59:12;;;;;;;1.23;0.70;;;25.60;71.50;26.00;101654.00;;;;4917523;28;117927;-64
2022/10/27 11:02:10;;;;;;;0.80;0.80;;;25.60;72.60;26.20;101657.00;;;;4923761;28;109481;-66